sensor_id;sensor_type;location;lat;lon;timestamp;pressure;altitude;pressure_sealevel;temperature;humidity
44765;BME280;30484;52.382;5.260;2023-10-09T00:00:16;102088.16;;;23.43;100.00
44765;BME280;30484;52.382;5.260;2023-10-09T00:03:18;102089.97;;;23.75;100.00
44765;BME280;30484;52.382;5.260;2023-10-09T00:05:50;102088.56;;;23.39;100.00
44765;BME280;30484;52.382;5.260;2023-10-09T00:08:21;102089.66;;;23.90;100.00
44765;BME280;30484;52.382;5.260;2023-10-09T00:10:58;102085.91;;;23.70;100.00
44765;BME280;30484;52.382;5.260;2023-10-09T00:13:40;102085.06;;;23.69;100.00
44765;BME280;30484;52.382;5.260;2023-10-09T00:16:19;102091.56;;;23.78;100.00
44765;BME280;30484;52.382;5.260;2023-10-09T00:19:03;102088.63;;;23.70;100.00
44765;BME280;30484;52.382;5.260;2023-10-09T00:21:41;102079.38;;;23.82;100.00
44765;BME280;30484;52.382;5.260;2023-10-09T00:24:10;102079.78;;;23.56;100.00
44765;BME280;30484;52.382;5.260;2023-10-09T00:26:43;102075.47;;;23.54;100.00
44765;BME280;30484;52.382;5.260;2023-10-09T00:29:15;102081.34;;;23.70;100.00
44765;BME280;30484;52.382;5.260;2023-10-09T00:31:54;102082.50;;;23.89;100.00
44765;BME280;30484;52.382;5.260;2023-10-09T00:34:30;102069.88;;;23.98;100.00
44765;BME280;30484;52.382;5.260;2023-10-09T00:37:07;102061.63;;;23.67;100.00
44765;BME280;30484;52.382;5.260;2023-10-09T00:39:40;102061.09;;;23.73;100.00
44765;BME280;30484;52.382;5.260;2023-10-09T00:42:11;102048.97;;;24.08;100.00
44765;BME280;30484;52.382;5.260;2023-10-09T00:44:53;102062.50;;;23.46;100.00
44765;BME280;30484;52.382;5.260;2023-10-09T00:47:24;102048.66;;;23.59;100.00
44765;BME280;30484;52.382;5.260;2023-10-09T00:50:03;102043.31;;;24.00;100.00
44765;BME280;30484;52.382;5.260;2023-10-09T00:52:39;102045.03;;;24.01;100.00
44765;BME280;30484;52.382;5.260;2023-10-09T00:55:11;102049.97;;;23.86;100.00
44765;BME280;30484;52.382;5.260;2023-10-09T00:57:45;102045.72;;;23.72;100.00
44765;BME280;30484;52.382;5.260;2023-10-09T01:00:24;102054.31;;;24.19;100.00
44765;BME280;30484;52.382;5.260;2023-10-09T01:03:02;102040.53;;;24.21;100.00
44765;BME280;30484;52.382;5.260;2023-10-09T01:05:48;102027.25;;;24.06;100.00
44765;BME280;30484;52.382;5.260;2023-10-09T01:08:25;102029.28;;;24.14;100.00
44765;BME280;30484;52.382;5.260;2023-10-09T01:10:57;102025.78;;;24.02;100.00
44765;BME280;30484;52.382;5.260;2023-10-09T01:13:36;102025.63;;;23.73;100.00
44765;BME280;30484;52.382;5.260;2023-10-09T01:16:23;102033.09;;;24.23;100.00
44765;BME280;30484;52.382;5.260;2023-10-09T01:18:55;102032.84;;;24.36;100.00
44765;BME280;30484;52.382;5.260;2023-10-09T01:21:25;102029.81;;;24.39;100.00
44765;BME280;30484;52.382;5.260;2023-10-09T01:23:56;102023.47;;;24.28;100.00
44765;BME280;30484;52.382;5.260;2023-10-09T01:26:34;102025.31;;;24.28;100.00
44765;BME280;30484;52.382;5.260;2023-10-09T01:29:12;102015.00;;;24.32;100.00
44765;BME280;30484;52.382;5.260;2023-10-09T01:31:44;102016.13;;;24.29;100.00
44765;BME280;30484;52.382;5.260;2023-10-09T01:34:19;102011.53;;;24.29;100.00
44765;BME280;30484;52.382;5.260;2023-10-09T01:36:52;102005.97;;;24.51;100.00
44765;BME280;30484;52.382;5.260;2023-10-09T01:39:24;102006.91;;;24.20;100.00
44765;BME280;30484;52.382;5.260;2023-10-09T01:41:56;102000.81;;;24.47;100.00
44765;BME280;30484;52.382;5.260;2023-10-09T01:44:28;101999.63;;;23.78;100.00
44765;BME280;30484;52.382;5.260;2023-10-09T01:46:57;101997.69;;;23.59;100.00
44765;BME280;30484;52.382;5.260;2023-10-09T01:49:26;101996.63;;;24.53;100.00
44765;BME280;30484;52.382;5.260;2023-10-09T01:51:58;101989.50;;;24.21;100.00
44765;BME280;30484;52.382;5.260;2023-10-09T01:54:32;101989.50;;;24.11;100.00
44765;BME280;30484;52.382;5.260;2023-10-09T01:57:09;101980.19;;;23.62;100.00
44765;BME280;30484;52.382;5.260;2023-10-09T01:59:40;101968.38;;;24.13;100.00
44765;BME280;30484;52.382;5.260;2023-10-09T02:02:12;101974.19;;;24.50;100.00
44765;BME280;30484;52.382;5.260;2023-10-09T02:04:54;101979.97;;;23.75;100.00
44765;BME280;30484;52.382;5.260;2023-10-09T02:07:32;101977.69;;;24.11;100.00
44765;BME280;30484;52.382;5.260;2023-10-09T02:10:11;101976.84;;;24.10;100.00
44765;BME280;30484;52.382;5.260;2023-10-09T02:12:53;101977.50;;;24.03;100.00
44765;BME280;30484;52.382;5.260;2023-10-09T02:15:26;101974.34;;;23.98;100.00
44765;BME280;30484;52.382;5.260;2023-10-09T02:18:20;101970.59;;;24.39;100.00
44765;BME280;30484;52.382;5.260;2023-10-09T02:21:05;101966.97;;;24.29;100.00
44765;BME280;30484;52.382;5.260;2023-10-09T02:23:51;101960.81;;;24.46;100.00
44765;BME280;30484;52.382;5.260;2023-10-09T02:26:25;101954.19;;;24.39;100.00
44765;BME280;30484;52.382;5.260;2023-10-09T02:29:01;101954.81;;;23.40;100.00
44765;BME280;30484;52.382;5.260;2023-10-09T02:31:32;101953.16;;;24.21;100.00
44765;BME280;30484;52.382;5.260;2023-10-09T02:34:08;101959.22;;;24.34;100.00
44765;BME280;30484;52.382;5.260;2023-10-09T02:36:37;101953.25;;;24.60;100.00
44765;BME280;30484;52.382;5.260;2023-10-09T02:39:08;101952.06;;;24.43;100.00
44765;BME280;30484;52.382;5.260;2023-10-09T02:41:52;101942.84;;;24.44;100.00
44765;BME280;30484;52.382;5.260;2023-10-09T02:44:27;101939.97;;;24.36;100.00
44765;BME280;30484;52.382;5.260;2023-10-09T02:46:57;101945.50;;;24.75;100.00
44765;BME280;30484;52.382;5.260;2023-10-09T02:49:26;101944.06;;;24.71;100.00
44765;BME280;30484;52.382;5.260;2023-10-09T02:51:55;101947.38;;;24.64;100.00
44765;BME280;30484;52.382;5.260;2023-10-09T02:54:23;101936.59;;;24.73;100.00
44765;BME280;30484;52.382;5.260;2023-10-09T02:57:04;101936.28;;;24.76;100.00
44765;BME280;30484;52.382;5.260;2023-10-09T02:59:35;101934.00;;;24.61;100.00
44765;BME280;30484;52.382;5.260;2023-10-09T03:02:12;101936.00;;;24.98;100.00
44765;BME280;30484;52.382;5.260;2023-10-09T03:04:41;101936.00;;;24.79;100.00
44765;BME280;30484;52.382;5.260;2023-10-09T03:07:09;101926.69;;;24.21;100.00
44765;BME280;30484;52.382;5.260;2023-10-09T03:09:41;101932.72;;;24.66;100.00
44765;BME280;30484;52.382;5.260;2023-10-09T03:12:11;101927.06;;;24.96;100.00
44765;BME280;30484;52.382;5.260;2023-10-09T03:14:40;101923.06;;;24.61;100.00
44765;BME280;30484;52.382;5.260;2023-10-09T03:17:10;101929.69;;;24.69;100.00
44765;BME280;30484;52.382;5.260;2023-10-09T03:19:39;101923.03;;;24.52;100.00
44765;BME280;30484;52.382;5.260;2023-10-09T03:22:08;101918.00;;;24.47;100.00
44765;BME280;30484;52.382;5.260;2023-10-09T03:24:38;101923.03;;;24.81;100.00
44765;BME280;30484;52.382;5.260;2023-10-09T03:27:10;101938.97;;;24.46;100.00
44765;BME280;30484;52.382;5.260;2023-10-09T03:29:38;101953.19;;;24.30;100.00
44765;BME280;30484;52.382;5.260;2023-10-09T03:32:09;101947.66;;;24.61;100.00
44765;BME280;30484;52.382;5.260;2023-10-09T03:34:38;101954.84;;;24.92;100.00
44765;BME280;30484;52.382;5.260;2023-10-09T03:37:06;101943.75;;;24.54;100.00
44765;BME280;30484;52.382;5.260;2023-10-09T03:39:48;101953.34;;;24.39;100.00
44765;BME280;30484;52.382;5.260;2023-10-09T03:42:23;101953.38;;;25.17;100.00
44765;BME280;30484;52.382;5.260;2023-10-09T03:44:52;101958.88;;;24.97;100.00
44765;BME280;30484;52.382;5.260;2023-10-09T03:47:21;101953.94;;;25.11;100.00
44765;BME280;30484;52.382;5.260;2023-10-09T03:49:52;101961.56;;;24.49;100.00
44765;BME280;30484;52.382;5.260;2023-10-09T03:52:21;101961.94;;;24.34;100.00
44765;BME280;30484;52.382;5.260;2023-10-09T03:54:53;101949.31;;;24.43;100.00
44765;BME280;30484;52.382;5.260;2023-10-09T03:57:24;101950.97;;;24.94;100.00
44765;BME280;30484;52.382;5.260;2023-10-09T03:59:53;101952.22;;;25.20;100.00
44765;BME280;30484;52.382;5.260;2023-10-09T04:02:22;101956.13;;;24.97;100.00
44765;BME280;30484;52.382;5.260;2023-10-09T04:04:51;101958.56;;;25.01;100.00
44765;BME280;30484;52.382;5.260;2023-10-09T04:07:20;101947.34;;;25.33;100.00
44765;BME280;30484;52.382;5.260;2023-10-09T04:09:51;101936.53;;;25.31;100.00
44765;BME280;30484;52.382;5.260;2023-10-09T04:12:40;101939.09;;;25.53;100.00
44765;BME280;30484;52.382;5.260;2023-10-09T04:15:10;101932.22;;;25.39;100.00
44765;BME280;30484;52.382;5.260;2023-10-09T04:17:42;101928.06;;;25.62;100.00
44765;BME280;30484;52.382;5.260;2023-10-09T04:20:11;101928.38;;;25.59;100.00
44765;BME280;30484;52.382;5.260;2023-10-09T04:22:56;101926.88;;;25.47;100.00
44765;BME280;30484;52.382;5.260;2023-10-09T04:25:32;101914.06;;;25.28;100.00
44765;BME280;30484;52.382;5.260;2023-10-09T04:28:11;101909.19;;;25.31;100.00
44765;BME280;30484;52.382;5.260;2023-10-09T04:30:47;101907.72;;;25.47;100.00
44765;BME280;30484;52.382;5.260;2023-10-09T04:33:21;101939.97;;;25.24;100.00
44765;BME280;30484;52.382;5.260;2023-10-09T04:36:03;101927.03;;;25.16;100.00
44765;BME280;30484;52.382;5.260;2023-10-09T04:38:52;101920.66;;;25.25;100.00
44765;BME280;30484;52.382;5.260;2023-10-09T04:41:43;101927.06;;;24.96;100.00
44765;BME280;30484;52.382;5.260;2023-10-09T04:44:42;101932.19;;;25.29;100.00
44765;BME280;30484;52.382;5.260;2023-10-09T04:47:32;101938.84;;;25.07;100.00
44765;BME280;30484;52.382;5.260;2023-10-09T04:50:05;101941.41;;;25.38;100.00
44765;BME280;30484;52.382;5.260;2023-10-09T04:52:37;101945.44;;;25.33;100.00
44765;BME280;30484;52.382;5.260;2023-10-09T04:55:20;101944.38;;;25.64;100.00
44765;BME280;30484;52.382;5.260;2023-10-09T04:57:52;101951.84;;;25.62;100.00
44765;BME280;30484;52.382;5.260;2023-10-09T05:00:37;101958.56;;;25.01;100.00
44765;BME280;30484;52.382;5.260;2023-10-09T05:03:29;101955.13;;;24.98;100.00
44765;BME280;30484;52.382;5.260;2023-10-09T05:06:11;101970.06;;;25.24;100.00
44765;BME280;30484;52.382;5.260;2023-10-09T05:08:59;101970.78;;;24.07;100.00
44765;BME280;30484;52.382;5.260;2023-10-09T05:11:36;101976.38;;;25.44;100.00
44765;BME280;30484;52.382;5.260;2023-10-09T05:14:22;101984.03;;;25.11;100.00
44765;BME280;30484;52.382;5.260;2023-10-09T05:17:07;101983.28;;;24.50;100.00
44765;BME280;30484;52.382;5.260;2023-10-09T05:19:44;101985.91;;;24.81;100.00
44765;BME280;30484;52.382;5.260;2023-10-09T05:22:44;102001.88;;;24.95;100.00
44765;BME280;30484;52.382;5.260;2023-10-09T05:25:26;102014.25;;;25.19;100.00
44765;BME280;30484;52.382;5.260;2023-10-09T05:28:12;101998.00;;;25.18;100.00
44765;BME280;30484;52.382;5.260;2023-10-09T05:30:59;101984.56;;;24.56;100.00
44765;BME280;30484;52.382;5.260;2023-10-09T05:33:35;101984.91;;;25.11;100.00
44765;BME280;30484;52.382;5.260;2023-10-09T05:36:05;101991.25;;;25.31;100.00
44765;BME280;30484;52.382;5.260;2023-10-09T05:38:45;101989.38;;;25.03;100.00
44765;BME280;30484;52.382;5.260;2023-10-09T05:41:25;101983.47;;;25.17;100.00
44765;BME280;30484;52.382;5.260;2023-10-09T05:44:15;101985.47;;;25.35;100.00
44765;BME280;30484;52.382;5.260;2023-10-09T05:46:57;101962.00;;;25.42;100.00
44765;BME280;30484;52.382;5.260;2023-10-09T05:49:46;101970.78;;;24.77;100.00
44765;BME280;30484;52.382;5.260;2023-10-09T05:52:23;101971.53;;;24.98;100.00
44765;BME280;30484;52.382;5.260;2023-10-09T05:55:00;101963.59;;;25.05;100.00
44765;BME280;30484;52.382;5.260;2023-10-09T05:57:46;101966.03;;;25.18;100.00
44765;BME280;30484;52.382;5.260;2023-10-09T06:00:32;101986.59;;;25.52;100.00
44765;BME280;30484;52.382;5.260;2023-10-09T06:03:18;101976.78;;;25.59;100.00
44765;BME280;30484;52.382;5.260;2023-10-09T06:05:56;101971.00;;;25.62;100.00
44765;BME280;30484;52.382;5.260;2023-10-09T06:08:32;101980.00;;;25.82;100.00
44765;BME280;30484;52.382;5.260;2023-10-09T06:11:35;101978.84;;;25.27;100.00
44765;BME280;30484;52.382;5.260;2023-10-09T06:14:05;101954.25;;;25.37;100.00
44765;BME280;30484;52.382;5.260;2023-10-09T06:16:42;101949.75;;;26.21;100.00
44765;BME280;30484;52.382;5.260;2023-10-09T06:19:12;101919.97;;;25.71;100.00
44765;BME280;30484;52.382;5.260;2023-10-09T06:21:56;101924.72;;;26.34;100.00
44765;BME280;30484;52.382;5.260;2023-10-09T06:24:43;101935.69;;;26.06;100.00
44765;BME280;30484;52.382;5.260;2023-10-09T06:27:22;101949.03;;;26.19;100.00
44765;BME280;30484;52.382;5.260;2023-10-09T06:30:13;101970.97;;;25.72;100.00
44765;BME280;30484;52.382;5.260;2023-10-09T06:32:43;101980.81;;;25.92;100.00
44765;BME280;30484;52.382;5.260;2023-10-09T06:35:25;101972.91;;;25.89;100.00
44765;BME280;30484;52.382;5.260;2023-10-09T06:38:00;101980.94;;;25.73;100.00
44765;BME280;30484;52.382;5.260;2023-10-09T06:40:49;101982.06;;;25.80;100.00
44765;BME280;30484;52.382;5.260;2023-10-09T06:43:35;101982.59;;;25.46;100.00
44765;BME280;30484;52.382;5.260;2023-10-09T06:46:15;101991.22;;;25.51;100.00
44765;BME280;30484;52.382;5.260;2023-10-09T06:49:15;101996.69;;;25.51;100.00
44765;BME280;30484;52.382;5.260;2023-10-09T06:52:00;101986.91;;;25.09;100.00
44765;BME280;30484;52.382;5.260;2023-10-09T06:54:44;101989.94;;;25.93;100.00
44765;BME280;30484;52.382;5.260;2023-10-09T06:57:18;101983.72;;;25.43;100.00
44765;BME280;30484;52.382;5.260;2023-10-09T07:00:11;101975.13;;;24.89;100.00
44765;BME280;30484;52.382;5.260;2023-10-09T07:03:03;101966.94;;;25.76;100.00
44765;BME280;30484;52.382;5.260;2023-10-09T07:05:38;101970.97;;;26.09;100.00
44765;BME280;30484;52.382;5.260;2023-10-09T07:08:27;101961.53;;;25.56;100.00
44765;BME280;30484;52.382;5.260;2023-10-09T07:11:05;101962.31;;;25.76;100.00
44765;BME280;30484;52.382;5.260;2023-10-09T07:13:49;101963.66;;;26.10;100.00
44765;BME280;30484;52.382;5.260;2023-10-09T07:16:22;101970.50;;;26.42;100.00
44765;BME280;30484;52.382;5.260;2023-10-09T07:18:56;101972.47;;;26.31;100.00
44765;BME280;30484;52.382;5.260;2023-10-09T07:21:36;101974.56;;;26.38;100.00
44765;BME280;30484;52.382;5.260;2023-10-09T07:24:06;101972.75;;;26.00;100.00
44765;BME280;30484;52.382;5.260;2023-10-09T07:26:49;101963.69;;;25.90;100.00
44765;BME280;30484;52.382;5.260;2023-10-09T07:29:20;101953.41;;;26.76;100.00
44765;BME280;30484;52.382;5.260;2023-10-09T07:31:52;101964.03;;;26.43;100.00
44765;BME280;30484;52.382;5.260;2023-10-09T07:34:25;101960.22;;;26.72;100.00
44765;BME280;30484;52.382;5.260;2023-10-09T07:37:07;101955.38;;;26.83;100.00
44765;BME280;30484;52.382;5.260;2023-10-09T07:39:37;101948.13;;;27.00;100.00
44765;BME280;30484;52.382;5.260;2023-10-09T07:42:11;101957.94;;;26.85;100.00
44765;BME280;30484;52.382;5.260;2023-10-09T07:44:57;101968.69;;;26.78;100.00
44765;BME280;30484;52.382;5.260;2023-10-09T07:47:25;101979.44;;;26.90;100.00
44765;BME280;30484;52.382;5.260;2023-10-09T07:50:29;101979.88;;;27.21;100.00
44765;BME280;30484;52.382;5.260;2023-10-09T07:53:10;101974.16;;;27.14;100.00
44765;BME280;30484;52.382;5.260;2023-10-09T07:55:54;101981.13;;;27.53;100.00
44765;BME280;30484;52.382;5.260;2023-10-09T07:58:27;101967.16;;;27.38;100.00
44765;BME280;30484;52.382;5.260;2023-10-09T08:00:58;101959.34;;;27.33;100.00
44765;BME280;30484;52.382;5.260;2023-10-09T08:03:43;101943.16;;;27.22;100.00
44765;BME280;30484;52.382;5.260;2023-10-09T08:06:16;101960.00;;;27.27;100.00
44765;BME280;30484;52.382;5.260;2023-10-09T08:09:03;101979.94;;;27.11;100.00
44765;BME280;30484;52.382;5.260;2023-10-09T08:12:06;102006.38;;;26.94;100.00
44765;BME280;30484;52.382;5.260;2023-10-09T08:14:59;102016.88;;;26.99;100.00
44765;BME280;30484;52.382;5.260;2023-10-09T08:17:51;102021.50;;;26.98;100.00
44765;BME280;30484;52.382;5.260;2023-10-09T08:20:22;102015.53;;;27.21;100.00
44765;BME280;30484;52.382;5.260;2023-10-09T08:22:54;102028.06;;;26.69;100.00
44765;BME280;30484;52.382;5.260;2023-10-09T08:25:24;102032.34;;;27.26;100.00
44765;BME280;30484;52.382;5.260;2023-10-09T08:27:59;102048.56;;;26.65;100.00
44765;BME280;30484;52.382;5.260;2023-10-09T08:30:46;102060.03;;;26.79;100.00
44765;BME280;30484;52.382;5.260;2023-10-09T08:33:30;102057.19;;;26.70;100.00
44765;BME280;30484;52.382;5.260;2023-10-09T08:36:14;102065.03;;;26.83;100.00
44765;BME280;30484;52.382;5.260;2023-10-09T08:38:50;102065.59;;;26.87;100.00
44765;BME280;30484;52.382;5.260;2023-10-09T08:41:25;102071.59;;;27.36;100.00
44765;BME280;30484;52.382;5.260;2023-10-09T08:43:58;102076.38;;;27.34;100.00
44765;BME280;30484;52.382;5.260;2023-10-09T08:46:29;102081.59;;;27.64;100.00
44765;BME280;30484;52.382;5.260;2023-10-09T08:48:59;102075.00;;;27.20;100.00
44765;BME280;30484;52.382;5.260;2023-10-09T08:51:32;102069.75;;;27.09;100.00
44765;BME280;30484;52.382;5.260;2023-10-09T08:54:02;102063.25;;;27.90;100.00
44765;BME280;30484;52.382;5.260;2023-10-09T08:56:32;102072.28;;;27.57;100.00
44765;BME280;30484;52.382;5.260;2023-10-09T08:59:00;102092.78;;;27.70;100.00
44765;BME280;30484;52.382;5.260;2023-10-09T09:01:32;102093.00;;;27.77;100.00
44765;BME280;30484;52.382;5.260;2023-10-09T09:04:02;102089.09;;;27.80;100.00
44765;BME280;30484;52.382;5.260;2023-10-09T09:06:36;102090.44;;;26.85;100.00
44765;BME280;30484;52.382;5.260;2023-10-09T09:09:11;102092.50;;;27.55;100.00
44765;BME280;30484;52.382;5.260;2023-10-09T09:11:43;102090.44;;;27.76;100.00
44765;BME280;30484;52.382;5.260;2023-10-09T09:14:16;102093.59;;;27.45;100.00
44765;BME280;30484;52.382;5.260;2023-10-09T09:16:51;102084.50;;;27.88;100.00
44765;BME280;30484;52.382;5.260;2023-10-09T09:19:31;102078.53;;;27.67;100.00
44765;BME280;30484;52.382;5.260;2023-10-09T09:22:04;102085.22;;;28.17;100.00
44765;BME280;30484;52.382;5.260;2023-10-09T09:24:42;102085.75;;;27.32;100.00
44765;BME280;30484;52.382;5.260;2023-10-09T09:27:45;102083.59;;;28.06;100.00
44765;BME280;30484;52.382;5.260;2023-10-09T09:30:24;102084.44;;;27.80;100.00
44765;BME280;30484;52.382;5.260;2023-10-09T09:33:18;102077.78;;;28.78;100.00
44765;BME280;30484;52.382;5.260;2023-10-09T09:35:59;102076.88;;;27.56;100.00
44765;BME280;30484;52.382;5.260;2023-10-09T09:38:30;102086.94;;;27.92;100.00
44765;BME280;30484;52.382;5.260;2023-10-09T09:41:14;102079.84;;;28.41;100.00
44765;BME280;30484;52.382;5.260;2023-10-09T09:43:53;102088.25;;;28.05;100.00
44765;BME280;30484;52.382;5.260;2023-10-09T09:46:24;102087.53;;;27.59;100.00
44765;BME280;30484;52.382;5.260;2023-10-09T09:49:03;102094.78;;;27.60;100.00
44765;BME280;30484;52.382;5.260;2023-10-09T09:51:33;102088.63;;;28.11;100.00
44765;BME280;30484;52.382;5.260;2023-10-09T09:54:02;102077.50;;;28.20;100.00
44765;BME280;30484;52.382;5.260;2023-10-09T09:56:37;102078.28;;;28.04;100.00
44765;BME280;30484;52.382;5.260;2023-10-09T09:59:08;102079.34;;;27.85;100.00
44765;BME280;30484;52.382;5.260;2023-10-09T10:01:49;102080.59;;;27.91;100.00
44765;BME280;30484;52.382;5.260;2023-10-09T10:04:29;102073.28;;;28.34;100.00
44765;BME280;30484;52.382;5.260;2023-10-09T10:07:04;102071.75;;;28.40;100.00
44765;BME280;30484;52.382;5.260;2023-10-09T10:09:37;102075.84;;;28.28;100.00
44765;BME280;30484;52.382;5.260;2023-10-09T10:12:12;102090.81;;;28.68;100.00
44765;BME280;30484;52.382;5.260;2023-10-09T10:14:55;102094.81;;;28.39;100.00
44765;BME280;30484;52.382;5.260;2023-10-09T10:17:26;102113.72;;;28.85;100.00
44765;BME280;30484;52.382;5.260;2023-10-09T10:20:06;102111.75;;;27.82;100.00
44765;BME280;30484;52.382;5.260;2023-10-09T10:23:15;102104.19;;;28.02;100.00
44765;BME280;30484;52.382;5.260;2023-10-09T10:25:46;102115.41;;;28.35;100.00
44765;BME280;30484;52.382;5.260;2023-10-09T10:28:20;102112.16;;;28.13;100.00
44765;BME280;30484;52.382;5.260;2023-10-09T10:31:05;102118.19;;;28.17;100.00
44765;BME280;30484;52.382;5.260;2023-10-09T10:34:05;102102.34;;;28.37;100.00
44765;BME280;30484;52.382;5.260;2023-10-09T10:36:39;102115.91;;;27.86;100.00
44765;BME280;30484;52.382;5.260;2023-10-09T10:39:11;102114.16;;;28.03;100.00
44765;BME280;30484;52.382;5.260;2023-10-09T10:41:55;102110.13;;;28.50;100.00
44765;BME280;30484;52.382;5.260;2023-10-09T10:44:27;102116.06;;;28.71;100.00
44765;BME280;30484;52.382;5.260;2023-10-09T10:47:06;102103.72;;;28.75;100.00
44765;BME280;30484;52.382;5.260;2023-10-09T10:49:50;102110.09;;;28.84;100.00
44765;BME280;30484;52.382;5.260;2023-10-09T10:52:27;102104.56;;;28.33;100.00
44765;BME280;30484;52.382;5.260;2023-10-09T10:55:11;102098.44;;;28.48;100.00
44765;BME280;30484;52.382;5.260;2023-10-09T10:57:59;102102.00;;;28.40;100.00
44765;BME280;30484;52.382;5.260;2023-10-09T11:00:36;102110.84;;;28.95;100.00
44765;BME280;30484;52.382;5.260;2023-10-09T11:03:23;102105.16;;;28.96;100.00
44765;BME280;30484;52.382;5.260;2023-10-09T11:06:01;102110.84;;;28.52;100.00
44765;BME280;30484;52.382;5.260;2023-10-09T11:08:46;102109.28;;;28.15;100.00
44765;BME280;30484;52.382;5.260;2023-10-09T11:11:23;102119.31;;;28.32;100.00
44765;BME280;30484;52.382;5.260;2023-10-09T11:14:08;102121.19;;;28.32;100.00
44765;BME280;30484;52.382;5.260;2023-10-09T11:16:42;102122.41;;;28.29;100.00
44765;BME280;30484;52.382;5.260;2023-10-09T11:19:20;102124.09;;;28.22;100.00
44765;BME280;30484;52.382;5.260;2023-10-09T11:22:00;102118.09;;;29.12;100.00
44765;BME280;30484;52.382;5.260;2023-10-09T11:24:47;102114.31;;;29.21;100.00
44765;BME280;30484;52.382;5.260;2023-10-09T11:27:27;102120.31;;;29.08;100.00
44765;BME280;30484;52.382;5.260;2023-10-09T11:29:59;102110.69;;;28.62;100.00
44765;BME280;30484;52.382;5.260;2023-10-09T11:32:37;102115.44;;;28.78;100.00
44765;BME280;30484;52.382;5.260;2023-10-09T11:35:13;102119.97;;;28.61;100.00
44765;BME280;30484;52.382;5.260;2023-10-09T11:37:55;102122.84;;;28.85;100.00
44765;BME280;30484;52.382;5.260;2023-10-09T11:40:33;102125.84;;;28.31;100.00
44765;BME280;30484;52.382;5.260;2023-10-09T11:43:17;102120.25;;;28.15;100.00
44765;BME280;30484;52.382;5.260;2023-10-09T11:45:53;102111.00;;;29.01;100.00
44765;BME280;30484;52.382;5.260;2023-10-09T11:48:23;102103.94;;;28.48;100.00
44765;BME280;30484;52.382;5.260;2023-10-09T11:51:00;102102.16;;;29.40;100.00
44765;BME280;30484;52.382;5.260;2023-10-09T11:53:44;102107.69;;;28.81;100.00
44765;BME280;30484;52.382;5.260;2023-10-09T11:56:18;102092.09;;;29.06;100.00
44765;BME280;30484;52.382;5.260;2023-10-09T11:58:50;102096.81;;;29.39;100.00
44765;BME280;30484;52.382;5.260;2023-10-09T12:01:19;102094.50;;;29.01;100.00
44765;BME280;30484;52.382;5.260;2023-10-09T12:03:50;102091.69;;;28.77;100.00
44765;BME280;30484;52.382;5.260;2023-10-09T12:06:21;102088.47;;;28.12;100.00
44765;BME280;30484;52.382;5.260;2023-10-09T12:08:50;102090.19;;;28.56;100.00
44765;BME280;30484;52.382;5.260;2023-10-09T12:11:22;102094.81;;;28.90;100.00
44765;BME280;30484;52.382;5.260;2023-10-09T12:13:56;102098.63;;;28.20;100.00
44765;BME280;30484;52.382;5.260;2023-10-09T12:16:28;102098.25;;;27.88;100.00
44765;BME280;30484;52.382;5.260;2023-10-09T12:18:57;102098.94;;;28.78;100.00
44765;BME280;30484;52.382;5.260;2023-10-09T12:21:26;102096.91;;;28.53;100.00
44765;BME280;30484;52.382;5.260;2023-10-09T12:23:57;102100.19;;;28.57;100.00
44765;BME280;30484;52.382;5.260;2023-10-09T12:26:30;102096.38;;;28.50;100.00
44765;BME280;30484;52.382;5.260;2023-10-09T12:29:02;102092.72;;;28.41;100.00
44765;BME280;30484;52.382;5.260;2023-10-09T12:31:38;102095.00;;;27.67;100.00
44765;BME280;30484;52.382;5.260;2023-10-09T12:34:06;102112.97;;;28.66;100.00
44765;BME280;30484;52.382;5.260;2023-10-09T12:36:35;102105.41;;;28.68;100.00
44765;BME280;30484;52.382;5.260;2023-10-09T12:39:05;102114.47;;;28.61;100.00
44765;BME280;30484;52.382;5.260;2023-10-09T12:41:35;102121.75;;;28.35;100.00
44765;BME280;30484;52.382;5.260;2023-10-09T12:44:09;102123.38;;;28.20;100.00
44765;BME280;30484;52.382;5.260;2023-10-09T12:46:43;102124.97;;;27.60;100.00
44765;BME280;30484;52.382;5.260;2023-10-09T12:49:20;102121.59;;;27.66;100.00
44765;BME280;30484;52.382;5.260;2023-10-09T12:51:53;102117.53;;;27.97;100.00
44765;BME280;30484;52.382;5.260;2023-10-09T12:54:22;102121.56;;;27.30;100.00
44765;BME280;30484;52.382;5.260;2023-10-09T12:56:56;102118.81;;;28.02;100.00
44765;BME280;30484;52.382;5.260;2023-10-09T12:59:26;102114.28;;;27.75;100.00
44765;BME280;30484;52.382;5.260;2023-10-09T13:01:55;102123.91;;;27.35;100.00
44765;BME280;30484;52.382;5.260;2023-10-09T13:04:26;102109.50;;;27.59;100.00
44765;BME280;30484;52.382;5.260;2023-10-09T13:07:00;102109.75;;;27.66;100.00
44765;BME280;30484;52.382;5.260;2023-10-09T13:09:32;102109.03;;;27.10;100.00
44765;BME280;30484;52.382;5.260;2023-10-09T13:12:12;102112.91;;;26.89;100.00
44765;BME280;30484;52.382;5.260;2023-10-09T13:14:46;102109.31;;;26.89;100.00
44765;BME280;30484;52.382;5.260;2023-10-09T13:17:17;102111.72;;;27.19;100.00
44765;BME280;30484;52.382;5.260;2023-10-09T13:19:47;102115.50;;;26.91;100.00
44765;BME280;30484;52.382;5.260;2023-10-09T13:22:16;102117.09;;;26.93;100.00
44765;BME280;30484;52.382;5.260;2023-10-09T13:24:45;102104.25;;;27.12;100.00
44765;BME280;30484;52.382;5.260;2023-10-09T13:27:17;102109.66;;;27.21;100.00
44765;BME280;30484;52.382;5.260;2023-10-09T13:29:49;102108.09;;;27.19;100.00